createdAt,value
2022-07-28T00:00:03.180Z,100710.13
2022-07-28T00:02:31.602Z,100711.41
2022-07-28T00:04:59.127Z,100714.13
2022-07-28T00:07:26.379Z,100708.19
2022-07-28T00:09:58.234Z,100700.97
2022-07-28T00:12:27.493Z,100710.09
2022-07-28T00:14:55.105Z,100707.69
2022-07-28T00:17:21.888Z,100727.03
2022-07-28T00:19:50.996Z,100720.63
2022-07-28T00:22:18.608Z,100708.63
2022-07-28T00:24:45.446Z,100717.22
2022-07-28T00:27:12.684Z,100709.19
2022-07-28T00:29:39.458Z,100710.94
2022-07-28T00:32:17.732Z,100708.38
2022-07-28T00:34:44.830Z,100706.41
2022-07-28T00:37:13.379Z,100701.59
2022-07-28T00:39:42.301Z,100712.31
2022-07-28T00:42:09.231Z,100711.00
2022-07-28T00:44:39.038Z,100706.03
2022-07-28T00:47:05.843Z,100707.03
2022-07-28T00:49:32.914Z,100712.47
2022-07-28T00:52:00.570Z,100702.84
2022-07-28T00:54:28.163Z,100701.06
2022-07-28T00:56:55.149Z,100704.72
2022-07-28T00:59:21.868Z,100704.53
2022-07-28T01:01:49.078Z,100700.03
2022-07-28T01:04:16.982Z,100701.44
2022-07-28T01:07:18.567Z,100699.03
2022-07-28T01:10:13.374Z,100684.13
2022-07-28T01:13:03.047Z,100695.63
2022-07-28T01:15:29.505Z,100700.06
2022-07-28T01:18:10.466Z,100682.28
2022-07-28T01:20:54.176Z,100686.00
2022-07-28T01:23:48.719Z,100689.03
2022-07-28T01:26:39.774Z,100683.59
2022-07-28T01:29:48.170Z,100682.13
2022-07-28T01:32:27.338Z,100680.66
2022-07-28T01:35:11.769Z,100678.34
2022-07-28T01:37:45.807Z,100677.22
2022-07-28T01:40:16.744Z,100679.94
2022-07-28T01:42:54.341Z,100674.50
2022-07-28T01:45:21.647Z,100675.63
2022-07-28T01:47:49.967Z,100675.63
2022-07-28T01:50:21.214Z,100672.56
2022-07-28T01:52:49.834Z,100668.56
2022-07-28T01:55:20.376Z,100671.59
2022-07-28T01:57:49.029Z,100671.91
2022-07-28T02:00:16.293Z,100672.22
2022-07-28T02:02:45.884Z,100667.09
2022-07-28T02:05:15.984Z,100659.38
2022-07-28T02:07:48.277Z,100661.78
2022-07-28T02:10:17.779Z,100655.88
2022-07-28T02:12:46.906Z,100652.31
2022-07-28T02:15:15.870Z,100663.03
2022-07-28T02:17:45.892Z,100651.19
2022-07-28T02:20:14.995Z,100644.13
2022-07-28T02:22:43.748Z,100641.53
2022-07-28T02:25:10.911Z,100650.13
2022-07-28T02:28:01.922Z,100641.16
2022-07-28T02:30:35.952Z,100644.31
2022-07-28T02:33:08.309Z,100639.81
2022-07-28T02:35:57.526Z,100636.00
2022-07-28T02:38:30.374Z,100632.06
2022-07-28T02:41:01.122Z,100633.00
2022-07-28T02:43:50.138Z,100628.91
2022-07-28T02:46:20.140Z,100619.75
2022-07-28T02:48:52.544Z,100619.44
2022-07-28T02:51:23.549Z,100617.03
2022-07-28T02:53:51.088Z,100619.56
2022-07-28T02:56:18.309Z,100617.97
2022-07-28T02:58:46.788Z,100620.38
2022-07-28T03:01:17.461Z,100623.06
2022-07-28T03:03:45.992Z,100618.09
2022-07-28T03:06:13.006Z,100620.19
2022-07-28T03:08:39.662Z,100627.84
2022-07-28T03:11:10.908Z,100624.31
2022-07-28T03:13:39.684Z,100624.44
2022-07-28T03:16:07.346Z,100627.19
2022-07-28T03:18:34.189Z,100629.25
2022-07-28T03:21:01.017Z,100628.91
2022-07-28T03:23:35.014Z,100632.63
2022-07-28T03:26:06.823Z,100631.81
2022-07-28T03:28:34.149Z,100634.97
2022-07-28T03:31:05.677Z,100632.75
2022-07-28T03:33:33.471Z,100628.41
2022-07-28T03:36:04.753Z,100628.91
2022-07-28T03:38:41.081Z,100625.81
2022-07-28T03:41:10.061Z,100625.91
2022-07-28T03:43:38.148Z,100633.66
2022-07-28T03:46:07.570Z,100635.88
2022-07-28T03:48:37.876Z,100634.28
2022-07-28T03:51:04.521Z,100631.66
2022-07-28T03:53:31.395Z,100625.03
2022-07-28T03:55:58.335Z,100629.97
2022-07-28T03:58:28.837Z,100626.63
2022-07-28T04:00:56.606Z,100619.41
2022-07-28T04:03:37.656Z,100622.63
2022-07-28T04:06:10.935Z,100627.63
2022-07-28T04:08:37.666Z,100623.50
2022-07-28T04:11:04.538Z,100628.59
2022-07-28T04:13:36.573Z,100622.31
2022-07-28T04:16:04.527Z,100625.03
2022-07-28T04:18:31.253Z,100621.41
2022-07-28T04:20:58.748Z,100624.91
2022-07-28T04:23:25.488Z,100618.97
2022-07-28T04:25:52.214Z,100620.66
2022-07-28T04:28:18.946Z,100626.75
2022-07-28T04:30:46.124Z,100619.31
2022-07-28T04:33:12.936Z,100619.50
2022-07-28T04:35:39.644Z,100623.50
2022-07-28T04:38:06.418Z,100628.44
2022-07-28T04:40:34.409Z,100631.56
2022-07-28T04:43:01.354Z,100624.69
2022-07-28T04:45:28.151Z,100623.91
2022-07-28T04:47:54.714Z,100618.47
2022-07-28T04:50:21.639Z,100622.66
2022-07-28T04:52:57.619Z,100624.47
2022-07-28T04:55:25.135Z,100622.03
2022-07-28T04:57:51.871Z,100620.63
2022-07-28T05:00:19.980Z,100624.03
2022-07-28T05:02:49.548Z,100621.34
2022-07-28T05:05:16.249Z,100626.03
2022-07-28T05:07:43.378Z,100626.09
2022-07-28T05:10:11.965Z,100632.53
2022-07-28T05:12:38.994Z,100626.09
2022-07-28T05:15:06.685Z,100632.53
2022-07-28T05:17:33.375Z,100629.66
2022-07-28T05:20:00.085Z,100627.63
2022-07-28T05:22:26.841Z,100635.81
2022-07-28T05:24:53.552Z,100634.56
2022-07-28T05:27:20.284Z,100633.97
2022-07-28T05:29:48.082Z,100626.91
2022-07-28T05:32:17.260Z,100630.75
2022-07-28T05:34:45.338Z,100631.72
2022-07-28T05:37:12.241Z,100633.03
2022-07-28T05:39:39.055Z,100641.41
2022-07-28T05:42:06.123Z,100632.00
2022-07-28T05:44:37.813Z,100633.91
2022-07-28T05:47:05.031Z,100633.09
2022-07-28T05:49:31.689Z,100632.63
2022-07-28T05:51:58.349Z,100635.22
2022-07-28T05:54:25.249Z,100633.16
2022-07-28T05:56:52.776Z,100633.78
2022-07-28T05:59:19.439Z,100637.47
2022-07-28T06:01:46.739Z,100634.00
2022-07-28T06:04:29.670Z,100630.81
2022-07-28T06:06:56.506Z,100637.88
2022-07-28T06:09:23.157Z,100635.50
2022-07-28T06:11:50.507Z,100630.69
2022-07-28T06:14:18.322Z,100632.59
2022-07-28T06:16:45.431Z,100639.00
2022-07-28T06:19:12.221Z,100635.16
2022-07-28T06:21:38.888Z,100635.47
2022-07-28T06:24:08.425Z,100625.84
2022-07-28T06:26:43.661Z,100630.69
2022-07-28T06:29:11.266Z,100646.69
2022-07-28T06:31:38.951Z,100646.66
2022-07-28T06:34:06.031Z,100639.41
2022-07-28T06:36:32.680Z,100647.06
2022-07-28T06:38:59.359Z,100640.59
2022-07-28T06:41:26.060Z,100646.84
2022-07-28T06:43:52.739Z,100640.75
2022-07-28T06:46:19.987Z,100638.75
2022-07-28T06:48:46.909Z,100633.41
2022-07-28T06:51:18.969Z,100641.69
2022-07-28T06:53:48.457Z,100635.22
2022-07-28T06:56:15.822Z,100630.84
2022-07-28T06:58:43.857Z,100629.00
2022-07-28T07:01:15.019Z,100638.78
2022-07-28T07:03:43.186Z,100636.38
2022-07-28T07:06:10.910Z,100638.66
2022-07-28T07:08:38.290Z,100637.06
2022-07-28T07:11:05.093Z,100632.25
2022-07-28T07:13:33.139Z,100635.44
2022-07-28T07:16:00.364Z,100635.59
2022-07-28T07:18:27.256Z,100643.16
2022-07-28T07:20:54.768Z,100630.88
2022-07-28T07:23:21.511Z,100632.41
2022-07-28T07:25:48.289Z,100632.78
2022-07-28T07:28:14.906Z,100624.53
2022-07-28T07:30:41.729Z,100632.53
2022-07-28T07:33:09.694Z,100623.34
2022-07-28T07:35:37.977Z,100627.41
2022-07-28T07:38:04.897Z,100619.56
2022-07-28T07:40:32.063Z,100612.38
2022-07-28T07:42:58.699Z,100611.78
2022-07-28T07:45:25.344Z,100617.31
2022-07-28T07:47:52.040Z,100613.38
2022-07-28T07:50:18.786Z,100612.91
2022-07-28T07:52:45.498Z,100623.72
2022-07-28T07:55:12.227Z,100618.81
2022-07-28T07:57:38.932Z,100616.09
2022-07-28T08:00:07.608Z,100613.84
2022-07-28T08:02:54.361Z,100613.69
2022-07-28T08:05:21.136Z,100618.00
2022-07-28T08:08:02.138Z,100612.09
2022-07-28T08:10:29.051Z,100612.53
2022-07-28T08:12:55.752Z,100606.31
2022-07-28T08:15:22.456Z,100610.06
2022-07-28T08:17:49.262Z,100609.84
2022-07-28T08:20:15.891Z,100606.56
2022-07-28T08:22:54.935Z,100605.63
2022-07-28T08:25:22.250Z,100603.34
2022-07-28T08:27:49.033Z,100605.69
2022-07-28T08:30:21.695Z,100604.84
2022-07-28T08:32:56.462Z,100610.09
2022-07-28T08:35:34.116Z,100611.34
2022-07-28T08:38:02.834Z,100599.41
2022-07-28T08:40:32.164Z,100598.47
2022-07-28T08:43:13.892Z,100592.69
2022-07-28T08:45:44.457Z,100580.25
2022-07-28T08:48:12.216Z,100577.22
2022-07-28T08:50:39.550Z,100580.41
2022-07-28T08:53:07.858Z,100575.25
2022-07-28T08:55:36.461Z,100563.94
2022-07-28T08:58:03.987Z,100572.34
2022-07-28T09:00:30.684Z,100569.81
2022-07-28T09:02:58.359Z,100568.97
2022-07-28T09:05:25.132Z,100566.66
2022-07-28T09:07:55.606Z,100576.00
2022-07-28T09:10:23.044Z,100573.41
2022-07-28T09:12:49.834Z,100562.63
2022-07-28T09:15:16.657Z,100559.47
2022-07-28T09:17:43.499Z,100553.88
2022-07-28T09:20:12.005Z,100544.63
2022-07-28T09:23:41.854Z,100543.47
2022-07-28T09:26:11.397Z,100536.38
2022-07-28T09:28:57.263Z,100530.25
2022-07-28T09:31:26.300Z,100522.81
2022-07-28T09:34:01.546Z,100526.59
2022-07-28T09:36:30.071Z,100526.69
2022-07-28T09:38:57.109Z,100521.78
2022-07-28T09:41:24.042Z,100510.00
2022-07-28T09:43:55.346Z,100516.78
2022-07-28T09:46:25.681Z,100515.56
2022-07-28T09:49:00.557Z,100511.50
2022-07-28T09:51:33.411Z,100508.06
2022-07-28T09:54:14.525Z,100499.75
2022-07-28T09:56:45.611Z,100496.75
2022-07-28T09:59:14.997Z,100500.16
2022-07-28T10:01:59.174Z,100494.94
2022-07-28T10:04:42.053Z,100489.00
2022-07-28T10:07:11.387Z,100490.94
2022-07-28T10:09:39.131Z,100487.03
2022-07-28T10:12:19.438Z,100475.38
2022-07-28T10:14:47.378Z,100470.22
2022-07-28T10:17:29.283Z,100461.06
2022-07-28T10:20:06.988Z,100459.38
2022-07-28T10:22:39.504Z,100460.91
2022-07-28T10:25:12.581Z,100464.75
2022-07-28T10:27:41.922Z,100458.97
2022-07-28T10:30:09.547Z,100453.84
2022-07-28T10:32:43.152Z,100441.47
2022-07-28T10:35:14.708Z,100447.25
2022-07-28T10:37:54.238Z,100448.56
2022-07-28T10:40:25.512Z,100447.34
2022-07-28T10:42:53.218Z,100442.00
2022-07-28T10:45:20.361Z,100446.38
2022-07-28T10:47:48.165Z,100439.28
2022-07-28T10:50:16.130Z,100444.25
2022-07-28T10:52:49.896Z,100435.28
2022-07-28T10:55:33.365Z,100438.94
2022-07-28T10:58:13.705Z,100447.88
2022-07-28T11:00:56.004Z,100444.94
2022-07-28T11:03:47.151Z,100436.50
2022-07-28T11:06:36.990Z,100434.72
2022-07-28T11:09:15.655Z,100436.25
2022-07-28T11:11:46.059Z,100434.31
2022-07-28T11:14:37.175Z,100423.72
2022-07-28T11:17:04.142Z,100417.78
2022-07-28T11:20:00.808Z,100415.63
2022-07-28T11:22:33.642Z,100405.28
2022-07-28T11:25:19.149Z,100410.25
2022-07-28T11:27:50.686Z,100411.41
2022-07-28T11:30:32.958Z,100403.81
2022-07-28T11:33:01.161Z,100395.13
2022-07-28T11:35:33.274Z,100407.56
2022-07-28T11:38:03.016Z,100395.22
2022-07-28T11:40:32.700Z,100389.16
2022-07-28T11:43:22.191Z,100392.16
2022-07-28T11:45:55.454Z,100385.28
2022-07-28T11:48:23.271Z,100388.31
2022-07-28T11:51:05.205Z,100390.94
2022-07-28T11:53:42.995Z,100383.22
2022-07-28T11:56:15.359Z,100385.97
2022-07-28T11:58:43.254Z,100379.69
2022-07-28T12:01:18.105Z,100379.78
2022-07-28T12:03:49.998Z,100376.69
2022-07-28T12:06:27.201Z,100386.06
2022-07-28T12:08:59.502Z,100372.81
2022-07-28T12:11:31.768Z,100374.13
2022-07-28T12:14:04.432Z,100377.59
2022-07-28T12:16:32.688Z,100377.00
2022-07-28T12:19:01.821Z,100376.22
2022-07-28T12:21:47.785Z,100370.34
2022-07-28T12:24:28.353Z,100366.16
2022-07-28T12:26:57.666Z,100356.72
2022-07-28T12:29:35.892Z,100361.72
2022-07-28T12:32:09.946Z,100363.66
2022-07-28T12:34:39.721Z,100361.41
2022-07-28T12:37:09.836Z,100358.94
2022-07-28T12:39:39.782Z,100365.78
2022-07-28T12:42:08.881Z,100351.38
2022-07-28T12:44:43.757Z,100358.28
2022-07-28T12:47:15.539Z,100350.06
2022-07-28T12:49:44.015Z,100348.47
2022-07-28T12:52:22.238Z,100344.59
2022-07-28T12:54:55.660Z,100340.25
2022-07-28T12:57:48.704Z,100347.38
2022-07-28T13:00:20.834Z,100336.97
2022-07-28T13:02:49.618Z,100337.84
2022-07-28T13:05:56.403Z,100340.44
2022-07-28T13:08:24.606Z,100344.97
2022-07-28T13:10:56.620Z,100343.78
2022-07-28T13:13:24.434Z,100340.88
2022-07-28T13:16:17.161Z,100346.06
2022-07-28T13:18:53.472Z,100340.28
2022-07-28T13:21:58.816Z,100333.53
2022-07-28T13:24:27.568Z,100325.63
2022-07-28T13:26:54.822Z,100327.28
2022-07-28T13:29:22.490Z,100320.84
2022-07-28T13:31:50.235Z,100326.97
2022-07-28T13:34:17.167Z,100322.00
2022-07-28T13:36:44.060Z,100324.72
2022-07-28T13:39:10.917Z,100328.00
2022-07-28T13:41:57.971Z,100330.28
2022-07-28T13:44:24.426Z,100322.47
2022-07-28T13:46:51.631Z,100319.34
2022-07-28T13:49:21.281Z,100316.09
2022-07-28T13:51:50.983Z,100317.31
2022-07-28T13:54:19.517Z,100315.81
2022-07-28T13:57:05.687Z,100309.53
2022-07-28T13:59:32.459Z,100309.75
2022-07-28T14:02:03.292Z,100299.34
2022-07-28T14:04:30.039Z,100312.13
2022-07-28T14:06:56.651Z,100307.19
2022-07-28T14:09:23.385Z,100305.81
2022-07-28T14:11:53.587Z,100312.19
2022-07-28T14:14:24.955Z,100297.03
2022-07-28T14:16:54.560Z,100298.75
2022-07-28T14:19:38.996Z,100290.59
2022-07-28T14:22:13.755Z,100287.16
2022-07-28T14:24:42.189Z,100286.97
2022-07-28T14:27:10.306Z,100286.78
2022-07-28T14:29:37.807Z,100277.81
2022-07-28T14:32:04.795Z,100285.00
2022-07-28T14:34:31.579Z,100272.88
2022-07-28T14:37:01.280Z,100274.63
2022-07-28T14:39:34.000Z,100283.50
2022-07-28T14:42:00.653Z,100288.25
2022-07-28T14:44:27.696Z,100281.13
2022-07-28T14:46:54.465Z,100278.75
2022-07-28T14:49:21.352Z,100284.66
2022-07-28T14:51:48.122Z,100280.34
2022-07-28T14:54:15.325Z,100290.53
2022-07-28T14:56:42.348Z,100284.63
2022-07-28T14:59:09.535Z,100279.47
2022-07-28T15:01:36.617Z,100288.22
2022-07-28T15:04:04.756Z,100284.22
2022-07-28T15:06:31.540Z,100290.97
2022-07-28T15:08:58.475Z,100293.72
2022-07-28T15:11:26.088Z,100298.47
2022-07-28T15:13:52.826Z,100282.66
2022-07-28T15:16:19.837Z,100291.72
2022-07-28T15:18:46.562Z,100285.03
2022-07-28T15:21:16.698Z,100277.13
2022-07-28T15:23:44.141Z,100277.09
2022-07-28T15:26:11.313Z,100270.78
2022-07-28T15:28:38.578Z,100277.94
2022-07-28T15:31:08.393Z,100259.59
2022-07-28T15:33:41.080Z,100269.72
2022-07-28T15:36:15.693Z,100272.53
2022-07-28T15:38:47.544Z,100269.06
2022-07-28T15:41:16.499Z,100269.94
2022-07-28T15:43:43.894Z,100257.34
2022-07-28T15:46:13.054Z,100261.31
2022-07-28T15:48:41.754Z,100263.75
2022-07-28T15:51:09.108Z,100272.81
2022-07-28T15:53:36.854Z,100256.16
2022-07-28T15:56:04.681Z,100258.53
2022-07-28T15:58:31.937Z,100252.66
2022-07-28T16:00:59.291Z,100251.13
2022-07-28T16:03:28.955Z,100255.09
2022-07-28T16:05:56.053Z,100251.94
2022-07-28T16:08:23.317Z,100249.63
2022-07-28T16:10:51.519Z,100248.91
2022-07-28T16:13:31.230Z,100237.06
2022-07-28T16:16:22.016Z,100235.50
2022-07-28T16:18:49.218Z,100241.81
2022-07-28T16:21:15.932Z,100234.69
2022-07-28T16:23:42.713Z,100229.97
2022-07-28T16:26:10.641Z,100227.59
2022-07-28T16:28:37.506Z,100222.84
2022-07-28T16:31:04.545Z,100221.25
2022-07-28T16:33:33.802Z,100213.38
2022-07-28T16:36:02.142Z,100211.00
2022-07-28T16:38:28.878Z,100204.69
2022-07-28T16:40:57.084Z,100199.19
2022-07-28T16:43:23.714Z,100200.75
2022-07-28T16:45:50.339Z,100206.28
2022-07-28T16:48:17.319Z,100202.31
2022-07-28T16:50:46.178Z,100201.53
2022-07-28T16:53:13.943Z,100201.47
2022-07-28T16:55:42.262Z,100193.97
2022-07-28T16:58:09.165Z,100199.88
2022-07-28T17:00:36.002Z,100207.38
2022-07-28T17:03:02.750Z,100203.41
2022-07-28T17:05:29.510Z,100203.03
2022-07-28T17:07:56.254Z,100210.88
2022-07-28T17:10:27.026Z,100210.88
2022-07-28T17:12:54.487Z,100212.47
2022-07-28T17:15:22.617Z,100220.38
2022-07-28T17:17:51.072Z,100219.59
2022-07-28T17:20:19.107Z,100221.56
2022-07-28T17:22:45.854Z,100228.22
2022-07-28T17:27:59.540Z,100220.22
2022-07-28T17:30:26.572Z,100222.97
2022-07-28T17:32:58.969Z,100218.63
2022-07-28T17:35:34.477Z,100216.22
2022-07-28T17:38:03.377Z,100218.53
2022-07-28T17:40:30.292Z,100220.06
2022-07-28T17:42:57.139Z,100227.94
2022-07-28T17:45:26.565Z,100233.81
2022-07-28T17:47:53.253Z,100233.41
2022-07-28T17:50:20.454Z,100230.25
2022-07-28T17:52:47.256Z,100233.38
2022-07-28T17:55:37.479Z,100240.41
2022-07-28T17:58:27.919Z,100236.72
2022-07-28T18:01:09.629Z,100243.72
2022-07-28T18:03:59.387Z,100238.94
2022-07-28T18:06:36.956Z,100246.34
2022-07-28T18:09:07.861Z,100248.16
2022-07-28T18:11:36.923Z,100257.16
2022-07-28T18:14:22.126Z,100259.44
2022-07-28T18:16:48.823Z,100272.47
2022-07-28T18:19:15.569Z,100268.59
2022-07-28T18:21:43.617Z,100279.97
2022-07-28T18:24:10.315Z,100275.22
2022-07-28T18:26:36.977Z,100276.78
2022-07-28T18:29:03.732Z,100272.81
2022-07-28T18:31:30.955Z,100265.34
2022-07-28T18:33:57.665Z,100267.72
2022-07-28T18:36:24.385Z,100266.50
2022-07-28T18:38:51.053Z,100261.78
2022-07-28T18:41:17.910Z,100258.63
2022-07-28T18:43:44.601Z,100264.47
2022-07-28T18:46:11.396Z,100264.44
2022-07-28T18:48:38.246Z,100264.78
2022-07-28T18:51:05.238Z,100259.22
2022-07-28T18:53:31.899Z,100263.84
2022-07-28T18:55:58.609Z,100259.50
2022-07-28T18:58:25.345Z,100270.84
2022-07-28T19:00:52.148Z,100265.66
2022-07-28T19:03:18.995Z,100265.91
2022-07-28T19:05:46.471Z,100259.97
2022-07-28T19:08:13.749Z,100266.56
2022-07-28T19:10:40.538Z,100256.28
2022-07-28T19:13:12.508Z,100257.78
2022-07-28T19:15:40.918Z,100252.63
2022-07-28T19:18:10.065Z,100263.91
2022-07-28T19:20:39.863Z,100269.75
2022-07-28T19:23:06.855Z,100266.59
2022-07-28T19:25:35.798Z,100275.59
2022-07-28T19:28:02.797Z,100279.47
2022-07-28T19:30:32.006Z,100277.09
2022-07-28T19:32:59.078Z,100288.06
2022-07-28T19:35:26.330Z,100288.66
2022-07-28T19:37:53.246Z,100283.94
2022-07-28T19:40:19.991Z,100290.97
2022-07-28T19:42:48.598Z,100295.63
2022-07-28T19:45:15.571Z,100293.19
2022-07-28T19:47:42.643Z,100292.34
2022-07-28T19:50:09.620Z,100296.25
2022-07-28T19:52:37.630Z,100293.81
2022-07-28T19:55:05.952Z,100296.94
2022-07-28T19:57:34.462Z,100297.66
2022-07-28T20:00:04.578Z,100310.19
2022-07-28T20:02:38.805Z,100307.75
2022-07-28T20:05:06.793Z,100312.38
2022-07-28T20:07:33.574Z,100314.28
2022-07-28T20:10:01.033Z,100323.25
2022-07-28T20:12:32.824Z,100325.56
2022-07-28T20:15:03.835Z,100324.34
2022-07-28T20:17:38.632Z,100334.81
2022-07-28T20:20:13.105Z,100332.38
2022-07-28T20:22:41.451Z,100339.31
2022-07-28T20:25:10.104Z,100336.06
2022-07-28T20:27:41.595Z,100337.56
2022-07-28T20:30:10.270Z,100338.59
2022-07-28T20:32:38.182Z,100343.53
2022-07-28T20:35:06.821Z,100337.16
2022-07-28T20:37:36.047Z,100350.28
2022-07-28T20:40:08.522Z,100354.13
2022-07-28T20:42:36.767Z,100362.66
2022-07-28T20:45:04.532Z,100353.91
2022-07-28T20:47:32.826Z,100360.13
2022-07-28T20:50:00.826Z,100358.53
2022-07-28T20:52:27.743Z,100361.59
2022-07-28T20:54:55.183Z,100362.75
2022-07-28T20:57:25.150Z,100365.84
2022-07-28T20:59:52.102Z,100370.47
2022-07-28T21:02:23.224Z,100366.94
2022-07-28T21:04:50.836Z,100371.63
2022-07-28T21:08:04.684Z,100381.44
2022-07-28T21:10:08.220Z,100388.09
2022-07-28T21:12:37.133Z,100389.66
2022-07-28T21:15:05.976Z,100381.44
2022-07-28T21:17:32.815Z,100387.19
2022-07-28T21:19:59.763Z,100392.94
2022-07-28T21:22:27.068Z,100383.84
2022-07-28T21:24:55.564Z,100379.88
2022-07-28T21:27:23.915Z,100387.22
2022-07-28T21:32:18.395Z,100387.56
2022-07-28T21:34:45.558Z,100390.31
2022-07-28T21:37:13.089Z,100380.94
2022-07-28T21:39:40.532Z,100387.16
2022-07-28T21:42:09.126Z,100390.59
2022-07-28T21:44:37.587Z,100386.97
2022-07-28T21:47:04.406Z,100388.16
2022-07-28T21:49:32.271Z,100398.38
2022-07-28T21:51:59.580Z,100390.59
2022-07-28T21:54:26.747Z,100389.03
2022-07-28T21:56:53.548Z,100396.00
2022-07-28T21:59:20.243Z,100387.31
2022-07-28T22:01:47.701Z,100388.06
2022-07-28T22:04:15.197Z,100392.03
2022-07-28T22:06:46.086Z,100380.81
2022-07-28T22:09:14.379Z,100386.00
2022-07-28T22:11:41.371Z,100396.69
2022-07-28T22:14:08.105Z,100397.56
2022-07-28T22:16:35.077Z,100398.44
2022-07-28T22:19:01.884Z,100400.47
2022-07-28T22:21:28.634Z,100400.91
2022-07-28T22:23:55.912Z,100401.34
2022-07-28T22:26:23.516Z,100410.03
2022-07-28T22:28:50.248Z,100423.72
2022-07-28T22:31:17.182Z,100424.06
2022-07-28T22:33:43.935Z,100422.31
2022-07-28T22:36:10.846Z,100416.31
2022-07-28T22:38:37.895Z,100408.03
2022-07-28T22:41:04.577Z,100408.41
2022-07-28T22:43:33.549Z,100420.28
2022-07-28T22:46:00.430Z,100429.88
2022-07-28T22:48:27.338Z,100433.22
2022-07-28T22:50:53.978Z,100441.88
2022-07-28T22:53:20.606Z,100432.53
2022-07-28T22:55:47.287Z,100439.34
2022-07-28T22:58:13.947Z,100435.34
2022-07-28T23:00:40.606Z,100431.56
2022-07-28T23:03:07.292Z,100429.50
2022-07-28T23:05:39.738Z,100419.06
2022-07-28T23:08:06.451Z,100418.19
2022-07-28T23:10:33.297Z,100425.53
2022-07-28T23:13:00.323Z,100424.63
2022-07-28T23:15:40.638Z,100424.88
2022-07-28T23:18:11.932Z,100431.59
2022-07-28T23:20:39.962Z,100431.84
2022-07-28T23:23:07.184Z,100431.41
2022-07-28T23:25:36.609Z,100428.91
2022-07-28T23:28:03.508Z,100429.44
2022-07-28T23:30:30.181Z,100433.84
2022-07-28T23:32:56.964Z,100431.88
2022-07-28T23:35:23.836Z,100429.47
2022-07-28T23:37:50.576Z,100429.81
2022-07-28T23:40:17.473Z,100422.44
2022-07-28T23:42:44.177Z,100420.38
2022-07-28T23:45:11.194Z,100415.69
2022-07-28T23:47:37.941Z,100417.09
2022-07-28T23:50:05.509Z,100422.22
2022-07-28T23:52:32.333Z,100419.03
2022-07-28T23:54:59.007Z,100423.38
2022-07-28T23:57:25.759Z,100421.31
2022-07-28T23:59:58.981Z,100424.84
